Time;durP1;ratioP1;P1;durP2;ratioP2;P2;SDS_P1;SDS_P2;PMS_P1;PMS_P2;Temp;Humidity;BMP_temperature;BMP_pressure;BME280_temperature;BME280_humidity;BME280_pressure;Samples;Min_cycle;Max_cycle;Signal;HPM_P1;HPM_P2
2021/08/07 00:01:37;;;;;;;;;;;23.40;52.40;;;;;;492612;241;1228;-70
2021/08/07 00:03:39;;;;;;;;;;;23.60;52.10;;;;;;492698;241;1285;-69
2021/08/07 00:05:40;;;;;;;;;;;23.50;52.60;;;;;;492654;241;1229;-70
2021/08/07 00:07:42;;;;;;;;;;;23.90;51.70;;;;;;492629;241;1127;-69
2021/08/07 00:09:43;;;;;;;;;;;23.60;52.10;;;;;;492639;241;1165;-69
2021/08/07 00:11:44;;;;;;;;;;;24.00;51.50;;;;;;492629;241;1313;-70
2021/08/07 00:13:45;;;;;;;;;;;23.70;52.00;;;;;;492653;241;2175;-69
2021/08/07 00:15:47;;;;;;;;;;;23.90;51.60;;;;;;492660;241;1265;-69
2021/08/07 00:17:48;;;;;;;;;;;24.10;50.80;;;;;;492664;241;1219;-70
2021/08/07 00:19:50;;;;;;;;;;;23.80;51.40;;;;;;492633;241;1098;-70
2021/08/07 00:21:51;;;;;;;;;;;24.00;51.20;;;;;;492686;241;1148;-70
2021/08/07 00:23:52;;;;;;;;;;;23.80;51.60;;;;;;492626;241;1033;-70
2021/08/07 00:25:54;;;;;;;;;;;23.60;52.30;;;;;;492558;241;1466;-70
2021/08/07 00:27:55;;;;;;;;;;;23.90;51.60;;;;;;492591;241;1111;-69
2021/08/07 00:29:56;;;;;;;;;;;24.00;51.30;;;;;;492625;241;1186;-70
2021/08/07 00:31:58;;;;;;;;;;;23.70;51.50;;;;;;492504;241;1407;-70
2021/08/07 00:33:59;;;;;;;;;;;22.80;53.70;;;;;;492604;241;2140;-69
2021/08/07 00:36:00;;;;;;;;;;;22.40;55.20;;;;;;492560;241;1099;-69
2021/08/07 00:38:02;;;;;;;;;;;22.20;56.10;;;;;;492638;241;1010;-70
2021/08/07 00:40:03;;;;;;;;;;;22.00;56.50;;;;;;492625;241;1054;-70
2021/08/07 00:42:04;;;;;;;;;;;22.00;56.90;;;;;;492577;241;1233;-69
2021/08/07 00:44:06;;;;;;;;;;;21.90;57.00;;;;;;492631;241;1078;-69
2021/08/07 00:46:07;;;;;;;;;;;21.80;57.30;;;;;;492617;241;1228;-69
2021/08/07 00:48:08;;;;;;;;;;;21.70;57.50;;;;;;492751;241;1136;-69
2021/08/07 00:50:10;;;;;;;;;;;21.70;57.70;;;;;;492674;241;937;-70
2021/08/07 00:52:11;;;;;;;;;;;21.70;57.80;;;;;;492657;241;1233;-69
2021/08/07 00:54:12;;;;;;;;;;;21.70;58.00;;;;;;492663;241;2199;-69
2021/08/07 00:56:14;;;;;;;;;;;21.60;58.10;;;;;;492557;241;1422;-70
2021/08/07 00:58:15;;;;;;;;;;;21.60;58.20;;;;;;492705;241;1028;-70
2021/08/07 01:00:16;;;;;;;;;;;21.60;58.30;;;;;;492648;241;1199;-69
2021/08/07 01:02:18;;;;;;;;;;;21.60;58.30;;;;;;492677;241;1110;-70
2021/08/07 01:04:19;;;;;;;;;;;21.60;58.50;;;;;;492678;241;1037;-69
2021/08/07 01:06:20;;;;;;;;;;;21.50;58.50;;;;;;492591;238;1130;-69
2021/08/07 01:08:22;;;;;;;;;;;21.50;58.60;;;;;;492648;241;967;-69
2021/08/07 01:10:23;;;;;;;;;;;21.50;58.70;;;;;;492625;241;960;-69
2021/08/07 01:12:24;;;;;;;;;;;21.40;58.70;;;;;;492583;241;1055;-69
2021/08/07 01:14:26;;;;;;;;;;;21.50;58.80;;;;;;492679;241;2132;-69
2021/08/07 01:16:27;;;;;;;;;;;21.50;58.70;;;;;;492565;241;1088;-69
2021/08/07 01:18:28;;;;;;;;;;;21.50;58.90;;;;;;492700;241;1085;-69
2021/08/07 01:20:30;;;;;;;;;;;21.40;59.00;;;;;;492569;241;1200;-69
2021/08/07 01:22:31;;;;;;;;;;;21.40;59.10;;;;;;492590;241;1098;-70
2021/08/07 01:24:32;;;;;;;;;;;21.40;59.10;;;;;;492527;241;1109;-70
2021/08/07 01:26:34;;;;;;;;;;;21.40;59.00;;;;;;492570;241;975;-69
2021/08/07 01:28:35;;;;;;;;;;;21.40;59.10;;;;;;492668;241;1151;-69
2021/08/07 01:30:36;;;;;;;;;;;21.40;59.10;;;;;;492636;241;1167;-69
2021/08/07 01:32:38;;;;;;;;;;;21.40;59.30;;;;;;492639;241;1188;-69
2021/08/07 01:34:39;;;;;;;;;;;21.40;59.30;;;;;;492633;241;2228;-70
2021/08/07 01:36:40;;;;;;;;;;;21.30;59.30;;;;;;492599;241;1137;-70
2021/08/07 01:38:42;;;;;;;;;;;21.30;59.40;;;;;;492603;241;1229;-70
2021/08/07 01:40:43;;;;;;;;;;;21.40;59.30;;;;;;492567;241;1218;-69
2021/08/07 01:42:44;;;;;;;;;;;21.30;59.30;;;;;;492623;241;1277;-69
2021/08/07 01:44:46;;;;;;;;;;;21.30;59.40;;;;;;492639;241;1183;-70
2021/08/07 01:46:47;;;;;;;;;;;21.30;59.30;;;;;;492566;241;1075;-70
2021/08/07 01:48:48;;;;;;;;;;;21.30;59.30;;;;;;492667;241;978;-69
2021/08/07 01:50:50;;;;;;;;;;;21.30;59.30;;;;;;492652;241;1377;-69
2021/08/07 01:52:51;;;;;;;;;;;21.30;59.30;;;;;;492709;241;2179;-69
2021/08/07 01:54:52;;;;;;;;;;;21.30;59.40;;;;;;492542;241;1005;-69
2021/08/07 01:56:54;;;;;;;;;;;21.30;59.50;;;;;;492481;241;1042;-70
2021/08/07 01:58:55;;;;;;;;;;;21.20;59.50;;;;;;492675;241;1084;-70
2021/08/07 02:00:56;;;;;;;;;;;21.20;59.70;;;;;;492607;241;1255;-69
2021/08/07 02:02:58;;;;;;;;;;;21.30;59.50;;;;;;492637;241;1101;-69
2021/08/07 02:04:59;;;;;;;;;;;21.30;59.50;;;;;;492663;241;1081;-70
2021/08/07 02:07:01;;;;;;;;;;;21.20;59.60;;;;;;492594;241;1306;-70
2021/08/07 02:09:02;;;;;;;;;;;21.20;59.70;;;;;;492643;241;1100;-69
2021/08/07 02:11:03;;;;;;;;;;;21.20;59.70;;;;;;492615;241;1245;-69
2021/08/07 02:13:05;;;;;;;;;;;21.20;59.80;;;;;;492641;241;2191;-69
2021/08/07 02:15:06;;;;;;;;;;;21.30;59.80;;;;;;492701;241;1123;-70
2021/08/07 02:17:07;;;;;;;;;;;21.30;59.70;;;;;;492521;241;1189;-70
2021/08/07 02:19:09;;;;;;;;;;;21.30;59.60;;;;;;492700;241;998;-69
2021/08/07 02:21:10;;;;;;;;;;;21.20;59.80;;;;;;492615;241;1200;-69
2021/08/07 02:23:11;;;;;;;;;;;21.20;59.70;;;;;;492628;241;1007;-69
2021/08/07 02:25:13;;;;;;;;;;;21.20;59.90;;;;;;492721;241;977;-70
2021/08/07 02:27:14;;;;;;;;;;;21.20;59.80;;;;;;492567;241;1232;-70
2021/08/07 02:29:15;;;;;;;;;;;21.20;59.80;;;;;;492678;241;944;-69
2021/08/07 02:31:17;;;;;;;;;;;21.20;59.80;;;;;;492659;241;1199;-69
2021/08/07 02:33:18;;;;;;;;;;;21.20;59.90;;;;;;492560;241;2195;-70
2021/08/07 02:35:19;;;;;;;;;;;21.20;59.90;;;;;;492678;241;970;-70
2021/08/07 02:37:21;;;;;;;;;;;21.30;59.80;;;;;;492624;241;1062;-70
2021/08/07 02:39:22;;;;;;;;;;;21.20;59.70;;;;;;492714;241;1055;-70
2021/08/07 02:41:23;;;;;;;;;;;21.20;59.80;;;;;;492675;241;1333;-70
2021/08/07 02:43:25;;;;;;;;;;;21.20;59.90;;;;;;492659;241;987;-70
2021/08/07 02:45:26;;;;;;;;;;;21.20;59.90;;;;;;492580;241;1158;-69
2021/08/07 02:47:27;;;;;;;;;;;21.30;59.80;;;;;;492489;241;1059;-69
2021/08/07 02:49:29;;;;;;;;;;;21.20;59.70;;;;;;492721;241;1040;-69
2021/08/07 02:51:30;;;;;;;;;;;21.20;59.90;;;;;;492574;241;1195;-69
2021/08/07 02:53:31;;;;;;;;;;;21.20;59.90;;;;;;492663;241;2179;-69
2021/08/07 02:55:33;;;;;;;;;;;21.20;60.00;;;;;;492589;241;1181;-69
2021/08/07 02:57:34;;;;;;;;;;;21.20;59.90;;;;;;492450;241;1161;-70
2021/08/07 02:59:35;;;;;;;;;;;21.20;60.00;;;;;;492622;241;1169;-70
2021/08/07 03:01:37;;;;;;;;;;;21.30;60.00;;;;;;492472;241;1300;-69
2021/08/07 03:03:38;;;;;;;;;;;21.20;59.90;;;;;;492639;241;1133;-70
2021/08/07 03:05:39;;;;;;;;;;;21.20;60.00;;;;;;492697;241;1025;-69
2021/08/07 03:07:41;;;;;;;;;;;21.20;60.10;;;;;;492640;241;1225;-70
2021/08/07 03:09:42;;;;;;;;;;;21.10;60.10;;;;;;492763;241;1063;-69
2021/08/07 03:11:43;;;;;;;;;;;21.20;60.00;;;;;;492596;241;1253;-70
2021/08/07 03:13:45;;;;;;;;;;;21.10;60.00;;;;;;492695;241;2180;-69
2021/08/07 03:15:46;;;;;;;;;;;21.20;60.20;;;;;;492722;241;1157;-69
2021/08/07 03:17:48;;;;;;;;;;;21.20;60.20;;;;;;492654;241;1247;-69
2021/08/07 03:19:49;;;;;;;;;;;21.20;60.20;;;;;;492729;241;1090;-69
2021/08/07 03:21:50;;;;;;;;;;;21.10;60.30;;;;;;492591;241;1141;-69
2021/08/07 03:23:52;;;;;;;;;;;21.10;60.30;;;;;;492635;241;1202;-69
2021/08/07 03:25:53;;;;;;;;;;;21.20;60.30;;;;;;492629;241;1184;-70
2021/08/07 03:27:54;;;;;;;;;;;21.10;60.40;;;;;;492589;241;1066;-69
2021/08/07 03:29:56;;;;;;;;;;;21.10;60.30;;;;;;492712;241;1037;-70
2021/08/07 03:31:57;;;;;;;;;;;21.10;60.30;;;;;;492590;241;1162;-69
2021/08/07 03:33:58;;;;;;;;;;;21.10;60.30;;;;;;492586;241;2187;-70
2021/08/07 03:36:00;;;;;;;;;;;21.10;60.30;;;;;;492677;241;1265;-69
2021/08/07 03:38:01;;;;;;;;;;;21.10;60.30;;;;;;492608;241;1167;-69
2021/08/07 03:40:02;;;;;;;;;;;21.10;60.30;;;;;;492725;241;1036;-70
2021/08/07 03:42:04;;;;;;;;;;;21.10;60.30;;;;;;492584;241;1109;-70
2021/08/07 03:44:05;;;;;;;;;;;21.20;60.30;;;;;;492700;241;943;-69
2021/08/07 03:46:06;;;;;;;;;;;21.20;60.20;;;;;;492649;241;1304;-69
2021/08/07 03:48:08;;;;;;;;;;;21.20;60.20;;;;;;492617;241;1062;-69
2021/08/07 03:50:09;;;;;;;;;;;21.20;60.10;;;;;;492596;241;1075;-70
2021/08/07 03:52:10;;;;;;;;;;;21.20;60.30;;;;;;492576;241;1107;-70
2021/08/07 03:54:12;;;;;;;;;;;21.20;60.30;;;;;;492537;241;2159;-70
2021/08/07 03:56:13;;;;;;;;;;;21.10;60.40;;;;;;492529;241;1290;-70
2021/08/07 03:58:14;;;;;;;;;;;21.10;60.40;;;;;;492564;241;1072;-69
2021/08/07 04:00:16;;;;;;;;;;;21.20;60.30;;;;;;492612;241;1055;-69
2021/08/07 04:02:17;;;;;;;;;;;21.20;60.30;;;;;;492573;241;1181;-70
2021/08/07 04:04:18;;;;;;;;;;;21.10;60.40;;;;;;492668;241;1232;-70
2021/08/07 04:06:20;;;;;;;;;;;21.10;60.30;;;;;;492670;241;1163;-70
2021/08/07 04:08:21;;;;;;;;;;;21.20;60.30;;;;;;492678;241;1102;-69
2021/08/07 04:10:22;;;;;;;;;;;21.10;60.40;;;;;;492680;241;1127;-69
2021/08/07 04:12:24;;;;;;;;;;;21.20;60.50;;;;;;492624;241;1128;-69
2021/08/07 04:14:25;;;;;;;;;;;21.10;60.40;;;;;;492609;241;2199;-69
2021/08/07 04:16:26;;;;;;;;;;;21.10;60.50;;;;;;492567;241;1293;-69
2021/08/07 04:18:28;;;;;;;;;;;21.10;60.60;;;;;;492580;241;1109;-69
2021/08/07 04:20:29;;;;;;;;;;;21.10;60.50;;;;;;492632;241;979;-69
2021/08/07 04:22:30;;;;;;;;;;;21.10;60.60;;;;;;492527;241;965;-70
2021/08/07 04:24:32;;;;;;;;;;;21.10;60.70;;;;;;492657;241;985;-70
2021/08/07 04:26:33;;;;;;;;;;;21.10;60.70;;;;;;492670;241;1221;-69
2021/08/07 04:28:34;;;;;;;;;;;21.10;60.70;;;;;;492650;241;990;-70
2021/08/07 04:30:36;;;;;;;;;;;21.00;60.70;;;;;;492683;241;1086;-69
2021/08/07 04:32:37;;;;;;;;;;;21.10;60.80;;;;;;492607;241;1192;-69
2021/08/07 04:34:38;;;;;;;;;;;21.00;60.80;;;;;;492576;241;2200;-69
2021/08/07 04:36:40;;;;;;;;;;;21.10;60.80;;;;;;492603;241;1199;-69
2021/08/07 04:38:41;;;;;;;;;;;21.00;60.80;;;;;;492595;241;1131;-70
2021/08/07 04:40:42;;;;;;;;;;;21.10;60.80;;;;;;492679;241;1212;-69
2021/08/07 04:42:44;;;;;;;;;;;21.00;60.80;;;;;;492613;241;1156;-70
2021/08/07 04:44:45;;;;;;;;;;;21.10;60.90;;;;;;492644;241;1064;-70
2021/08/07 04:46:46;;;;;;;;;;;21.00;61.00;;;;;;492538;241;1257;-69
2021/08/07 04:48:48;;;;;;;;;;;21.00;61.00;;;;;;492561;241;1041;-69
2021/08/07 04:50:49;;;;;;;;;;;21.00;61.00;;;;;;492545;241;1153;-70
2021/08/07 04:52:50;;;;;;;;;;;21.00;61.10;;;;;;492578;241;1069;-70
2021/08/07 04:54:52;;;;;;;;;;;21.00;61.30;;;;;;492562;241;2190;-69
2021/08/07 04:56:53;;;;;;;;;;;21.00;61.30;;;;;;492554;241;1286;-70
2021/08/07 04:58:54;;;;;;;;;;;21.00;61.30;;;;;;492560;241;1158;-70
2021/08/07 05:00:56;;;;;;;;;;;21.00;61.30;;;;;;492596;241;1202;-70
2021/08/07 05:02:57;;;;;;;;;;;20.90;61.40;;;;;;492544;241;1161;-70
2021/08/07 05:04:58;;;;;;;;;;;20.90;61.30;;;;;;492663;241;1010;-70
2021/08/07 05:07:00;;;;;;;;;;;21.00;61.40;;;;;;492591;241;1241;-70
2021/08/07 05:09:01;;;;;;;;;;;21.00;61.40;;;;;;492640;241;1022;-69
2021/08/07 05:11:02;;;;;;;;;;;21.00;61.30;;;;;;492552;241;1215;-69
2021/08/07 05:13:04;;;;;;;;;;;21.00;61.30;;;;;;492665;241;1064;-69
2021/08/07 05:15:05;;;;;;;;;;;20.90;61.40;;;;;;492570;241;2182;-69
2021/08/07 05:17:06;;;;;;;;;;;21.00;61.50;;;;;;492524;241;1172;-69
2021/08/07 05:19:08;;;;;;;;;;;20.90;61.50;;;;;;492667;241;999;-70
2021/08/07 05:21:09;;;;;;;;;;;21.00;61.60;;;;;;492607;241;1169;-69
2021/08/07 05:23:10;;;;;;;;;;;20.90;61.60;;;;;;492578;241;1178;-69
2021/08/07 05:25:14;;;;;;;;;;;20.90;61.60;;;;;;492699;241;938;-70
2021/08/07 05:27:13;;;;;;;;;;;20.90;61.60;;;;;;492474;242;1745;-69
2021/08/07 05:29:15;;;;;;;;;;;20.90;61.70;;;;;;492577;241;1008;-70
2021/08/07 05:31:16;;;;;;;;;;;20.90;61.70;;;;;;492563;241;1196;-69
2021/08/07 05:33:17;;;;;;;;;;;20.90;61.80;;;;;;492601;241;1195;-69
2021/08/07 05:35:19;;;;;;;;;;;20.90;61.80;;;;;;492647;241;2143;-69
2021/08/07 05:37:20;;;;;;;;;;;20.90;61.80;;;;;;492596;241;1139;-70
2021/08/07 05:39:21;;;;;;;;;;;20.90;61.90;;;;;;492584;241;974;-69
2021/08/07 05:41:23;;;;;;;;;;;20.90;61.90;;;;;;492556;241;1161;-69
2021/08/07 05:43:24;;;;;;;;;;;20.90;61.90;;;;;;492597;241;1040;-69
2021/08/07 05:45:25;;;;;;;;;;;21.00;61.80;;;;;;492597;241;1116;-69
2021/08/07 05:47:27;;;;;;;;;;;21.00;61.80;;;;;;492419;241;1315;-69
2021/08/07 05:49:28;;;;;;;;;;;21.00;61.80;;;;;;492613;241;984;-69
2021/08/07 05:51:30;;;;;;;;;;;21.00;61.70;;;;;;492540;241;1202;-69
2021/08/07 05:53:31;;;;;;;;;;;21.00;61.80;;;;;;492597;241;1106;-70
2021/08/07 05:55:32;;;;;;;;;;;20.90;61.90;;;;;;492546;241;2171;-70
2021/08/07 05:57:33;;;;;;;;;;;21.00;62.00;;;;;;492476;241;1150;-69
2021/08/07 05:59:35;;;;;;;;;;;20.90;62.10;;;;;;492618;241;1074;-69
2021/08/07 06:01:36;;;;;;;;;;;20.90;62.10;;;;;;492459;241;1184;-69
2021/08/07 06:03:37;;;;;;;;;;;21.00;62.20;;;;;;492602;241;1197;-71
2021/08/07 06:05:39;;;;;;;;;;;20.90;62.10;;;;;;492607;241;954;-70
2021/08/07 06:07:40;;;;;;;;;;;20.90;62.20;;;;;;492603;241;1126;-70
2021/08/07 06:09:41;;;;;;;;;;;20.90;62.20;;;;;;492602;241;1003;-69
2021/08/07 06:11:43;;;;;;;;;;;20.90;62.30;;;;;;492534;238;1183;-69
2021/08/07 06:13:44;;;;;;;;;;;21.00;62.20;;;;;;492579;241;1126;-69
2021/08/07 06:15:45;;;;;;;;;;;20.90;62.20;;;;;;492537;241;2190;-70
2021/08/07 06:17:47;;;;;;;;;;;20.90;62.30;;;;;;492624;241;1132;-69
2021/08/07 06:19:48;;;;;;;;;;;20.90;62.30;;;;;;492586;241;985;-69
2021/08/07 06:21:49;;;;;;;;;;;20.90;62.30;;;;;;492584;241;1124;-69
2021/08/07 06:23:51;;;;;;;;;;;21.00;62.30;;;;;;492577;241;1038;-69
2021/08/07 06:25:52;;;;;;;;;;;21.00;62.30;;;;;;492655;241;1153;-69
2021/08/07 06:27:54;;;;;;;;;;;20.90;62.40;;;;;;492670;241;1118;-70
2021/08/07 06:29:55;;;;;;;;;;;21.00;62.40;;;;;;492596;241;1081;-69
2021/08/07 06:31:57;;;;;;;;;;;20.90;62.40;;;;;;492487;241;1254;-69
2021/08/07 06:33:58;;;;;;;;;;;20.90;62.50;;;;;;492555;241;1202;-70
2021/08/07 06:36:00;;;;;;;;;;;20.90;62.60;;;;;;492524;241;2184;-69
2021/08/07 06:38:01;;;;;;;;;;;21.00;62.50;;;;;;492587;241;1127;-69
2021/08/07 06:40:02;;;;;;;;;;;21.00;62.50;;;;;;492653;241;960;-70
2021/08/07 06:42:04;;;;;;;;;;;21.00;62.60;;;;;;492603;241;1221;-69
2021/08/07 06:44:05;;;;;;;;;;;20.90;62.70;;;;;;492623;241;1052;-69
2021/08/07 06:46:06;;;;;;;;;;;21.00;62.70;;;;;;492669;241;1218;-69
2021/08/07 06:48:08;;;;;;;;;;;20.90;62.70;;;;;;492612;241;1263;-69
2021/08/07 06:50:09;;;;;;;;;;;21.00;62.70;;;;;;492643;241;987;-70
2021/08/07 06:52:10;;;;;;;;;;;21.10;62.60;;;;;;492620;241;1183;-69
2021/08/07 06:54:12;;;;;;;;;;;21.20;62.10;;;;;;492638;241;978;-69
2021/08/07 06:56:13;;;;;;;;;;;22.10;59.70;;;;;;492636;241;2224;-69
2021/08/07 06:58:14;;;;;;;;;;;22.30;58.60;;;;;;492675;241;1122;-69
2021/08/07 07:00:16;;;;;;;;;;;22.50;57.90;;;;;;492592;241;1085;-70
2021/08/07 07:02:17;;;;;;;;;;;22.90;57.20;;;;;;492617;241;1164;-69
2021/08/07 07:04:18;;;;;;;;;;;23.10;56.20;;;;;;492675;241;1223;-69
2021/08/07 07:06:20;;;;;;;;;;;22.90;56.80;;;;;;492646;241;1195;-69
2021/08/07 07:08:21;;;;;;;;;;;23.60;55.40;;;;;;492674;241;1139;-70
2021/08/07 07:10:22;;;;;;;;;;;23.20;56.00;;;;;;492595;241;1200;-70
2021/08/07 07:12:24;;;;;;;;;;;23.30;55.60;;;;;;492551;241;1066;-69
2021/08/07 07:14:25;;;;;;;;;;;23.20;55.50;;;;;;492649;241;1072;-69
2021/08/07 07:16:27;;;;;;;;;;;23.00;56.40;;;;;;492614;241;2143;-70
2021/08/07 07:18:28;;;;;;;;;;;23.40;55.60;;;;;;492714;241;1140;-70
2021/08/07 07:20:30;;;;;;;;;;;23.00;56.10;;;;;;492609;241;1109;-70
2021/08/07 07:22:31;;;;;;;;;;;23.20;56.00;;;;;;492630;241;1145;-69
2021/08/07 07:24:32;;;;;;;;;;;22.90;56.60;;;;;;492599;241;1059;-69
2021/08/07 07:26:34;;;;;;;;;;;22.70;57.20;;;;;;492642;241;1229;-69
2021/08/07 07:28:35;;;;;;;;;;;22.40;57.90;;;;;;492647;242;970;-69
2021/08/07 07:30:36;;;;;;;;;;;22.30;58.40;;;;;;492652;241;986;-69
2021/08/07 07:32:38;;;;;;;;;;;22.30;58.40;;;;;;492674;241;1057;-69
2021/08/07 07:34:39;;;;;;;;;;;22.20;58.70;;;;;;492634;241;2168;-70
2021/08/07 07:36:40;;;;;;;;;;;22.20;58.80;;;;;;492589;241;1238;-69
2021/08/07 07:38:42;;;;;;;;;;;22.10;58.90;;;;;;492685;241;1099;-70
2021/08/07 07:40:43;;;;;;;;;;;22.20;58.90;;;;;;492663;241;979;-70
2021/08/07 07:42:44;;;;;;;;;;;22.20;58.80;;;;;;492716;241;981;-69
2021/08/07 07:44:46;;;;;;;;;;;22.30;58.60;;;;;;492682;241;1076;-69
2021/08/07 07:46:47;;;;;;;;;;;22.30;58.70;;;;;;492605;241;1177;-69
2021/08/07 07:48:48;;;;;;;;;;;22.30;58.60;;;;;;492630;241;1124;-70
2021/08/07 07:50:50;;;;;;;;;;;22.30;58.80;;;;;;492619;241;1211;-69
2021/08/07 07:52:51;;;;;;;;;;;22.30;58.70;;;;;;492612;241;1465;-70
2021/08/07 07:54:52;;;;;;;;;;;22.40;58.40;;;;;;492583;241;2144;-69
2021/08/07 07:56:54;;;;;;;;;;;22.50;58.50;;;;;;492619;241;1202;-70
2021/08/07 07:58:55;;;;;;;;;;;22.40;58.50;;;;;;492602;241;1030;-70
2021/08/07 08:00:56;;;;;;;;;;;22.30;58.60;;;;;;492553;241;1226;-69
2021/08/07 08:02:58;;;;;;;;;;;22.20;58.90;;;;;;492561;241;1111;-70
2021/08/07 08:04:59;;;;;;;;;;;22.20;59.10;;;;;;492584;241;1178;-70
2021/08/07 08:07:00;;;;;;;;;;;22.10;59.10;;;;;;492610;241;1261;-69
2021/08/07 08:09:02;;;;;;;;;;;22.20;59.10;;;;;;492643;241;1084;-69
2021/08/07 08:11:03;;;;;;;;;;;22.20;59.00;;;;;;492565;241;1435;-69
2021/08/07 08:13:04;;;;;;;;;;;22.30;58.90;;;;;;492627;241;1075;-69
2021/08/07 08:15:06;;;;;;;;;;;22.20;58.90;;;;;;492581;241;2183;-70
2021/08/07 08:17:07;;;;;;;;;;;22.40;58.90;;;;;;492621;241;1208;-70
2021/08/07 08:19:11;;;;;;;;;;;22.20;58.90;;;;;;492666;241;1131;-70
2021/08/07 08:21:10;;;;;;;;;;;22.30;58.80;;;;;;492374;242;1445;-70
2021/08/07 08:23:11;;;;;;;;;;;22.20;59.00;;;;;;492609;241;1159;-69
2021/08/07 08:25:12;;;;;;;;;;;22.20;59.20;;;;;;492527;241;1054;-70
2021/08/07 08:27:18;;;;;;;;;;;22.20;59.20;;;;;;492487;241;1191;-69
2021/08/07 08:29:15;;;;;;;;;;;22.40;58.50;;;;;;492358;242;1347;-69
2021/08/07 08:31:16;;;;;;;;;;;22.40;58.80;;;;;;492562;241;1323;-70
2021/08/07 08:33:18;;;;;;;;;;;22.40;58.70;;;;;;492667;241;1196;-69
2021/08/07 08:35:19;;;;;;;;;;;22.30;59.10;;;;;;492651;241;2152;-69
2021/08/07 08:37:20;;;;;;;;;;;22.30;59.00;;;;;;492549;241;1154;-69
2021/08/07 08:39:22;;;;;;;;;;;22.20;59.20;;;;;;492680;241;1228;-70
2021/08/07 08:41:23;;;;;;;;;;;22.20;59.30;;;;;;492544;241;1194;-69
2021/08/07 08:43:24;;;;;;;;;;;22.20;59.20;;;;;;492733;241;1239;-69
2021/08/07 08:45:26;;;;;;;;;;;22.20;59.30;;;;;;492666;241;966;-70
2021/08/07 08:47:27;;;;;;;;;;;22.30;59.20;;;;;;492590;241;1088;-70
2021/08/07 08:49:29;;;;;;;;;;;22.40;58.80;;;;;;492677;241;1187;-70
2021/08/07 08:51:30;;;;;;;;;;;24.00;56.00;;;;;;492573;241;1222;-70
2021/08/07 08:53:32;;;;;;;;;;;23.50;55.30;;;;;;492691;241;1055;-69
2021/08/07 08:55:33;;;;;;;;;;;23.60;55.30;;;;;;492617;242;2135;-70
2021/08/07 08:57:34;;;;;;;;;;;24.00;54.70;;;;;;492612;241;1116;-70
2021/08/07 08:59:35;;;;;;;;;;;23.80;55.00;;;;;;492703;241;957;-69
2021/08/07 09:01:36;;;;;;;;;;;23.60;55.00;;;;;;492546;238;1297;-69
2021/08/07 09:03:38;;;;;;;;;;;23.70;55.40;;;;;;492633;241;1124;-70
2021/08/07 09:05:39;;;;;;;;;;;23.70;55.20;;;;;;492636;241;1194;-70
2021/08/07 09:07:41;;;;;;;;;;;23.70;54.90;;;;;;492547;241;1088;-70
2021/08/07 09:09:42;;;;;;;;;;;24.10;53.90;;;;;;492670;241;952;-69
2021/08/07 09:11:43;;;;;;;;;;;24.00;54.20;;;;;;492556;241;1157;-69
2021/08/07 09:13:45;;;;;;;;;;;24.30;53.80;;;;;;492646;241;1175;-70
2021/08/07 09:15:46;;;;;;;;;;;23.90;54.50;;;;;;492549;241;2173;-70
2021/08/07 09:17:47;;;;;;;;;;;24.20;54.30;;;;;;492638;241;1059;-69
2021/08/07 09:19:49;;;;;;;;;;;23.70;54.70;;;;;;492677;241;1141;-69
2021/08/07 09:21:50;;;;;;;;;;;24.10;53.50;;;;;;492586;241;1209;-69
2021/08/07 09:23:51;;;;;;;;;;;24.10;54.10;;;;;;492717;241;1108;-69
2021/08/07 09:25:53;;;;;;;;;;;24.00;54.30;;;;;;492563;241;1236;-70
2021/08/07 09:27:54;;;;;;;;;;;24.10;53.90;;;;;;492564;241;1173;-69
2021/08/07 09:29:55;;;;;;;;;;;24.10;53.60;;;;;;492674;241;1115;-70
2021/08/07 09:31:57;;;;;;;;;;;24.00;54.10;;;;;;492498;241;1233;-70
2021/08/07 09:33:58;;;;;;;;;;;24.20;53.80;;;;;;492652;241;1199;-69
2021/08/07 09:35:59;;;;;;;;;;;24.20;54.10;;;;;;492586;241;2194;-69
2021/08/07 09:38:01;;;;;;;;;;;23.90;54.20;;;;;;492666;241;1140;-69
2021/08/07 09:40:02;;;;;;;;;;;23.90;54.00;;;;;;492617;241;1010;-69
2021/08/07 09:42:03;;;;;;;;;;;24.10;53.90;;;;;;492555;241;1187;-70
2021/08/07 09:44:05;;;;;;;;;;;24.20;54.10;;;;;;492657;241;1021;-70
2021/08/07 09:46:06;;;;;;;;;;;23.90;54.20;;;;;;492569;241;1226;-69
2021/08/07 09:48:07;;;;;;;;;;;24.30;53.70;;;;;;492663;241;1151;-69
2021/08/07 09:50:09;;;;;;;;;;;23.80;54.50;;;;;;492680;241;1171;-69
2021/08/07 09:52:10;;;;;;;;;;;24.20;53.30;;;;;;492478;241;1191;-70
2021/08/07 09:54:12;;;;;;;;;;;24.50;53.20;;;;;;492672;241;957;-70
2021/08/07 09:56:13;;;;;;;;;;;24.10;53.50;;;;;;492546;241;2198;-70
2021/08/07 09:58:14;;;;;;;;;;;24.50;53.10;;;;;;492666;241;1051;-70
2021/08/07 10:00:16;;;;;;;;;;;24.10;53.40;;;;;;492640;241;1116;-70
2021/08/07 10:02:17;;;;;;;;;;;24.30;53.80;;;;;;492541;241;1219;-69
2021/08/07 10:04:20;;;;;;;;;;;23.90;54.00;;;;;;492558;241;1020;-70
2021/08/07 10:06:20;;;;;;;;;;;24.10;53.40;;;;;;492432;241;1441;-70
2021/08/07 10:08:22;;;;;;;;;;;24.00;54.20;;;;;;492585;241;1124;-69
2021/08/07 10:10:23;;;;;;;;;;;23.80;54.00;;;;;;492663;241;980;-69
2021/08/07 10:12:24;;;;;;;;;;;24.00;53.60;;;;;;492605;241;1174;-69
2021/08/07 10:14:25;;;;;;;;;;;24.20;53.80;;;;;;492689;241;1060;-70
2021/08/07 10:16:27;;;;;;;;;;;23.90;53.90;;;;;;492510;241;2192;-70
2021/08/07 10:18:28;;;;;;;;;;;24.20;52.70;;;;;;492699;241;1081;-70
2021/08/07 10:20:30;;;;;;;;;;;24.80;52.50;;;;;;492703;241;1182;-70
2021/08/07 10:22:31;;;;;;;;;;;24.30;53.10;;;;;;492541;241;1065;-69
2021/08/07 10:24:32;;;;;;;;;;;24.70;52.30;;;;;;492634;241;1054;-70
2021/08/07 10:26:34;;;;;;;;;;;24.30;52.90;;;;;;492504;241;1178;-70
2021/08/07 10:28:35;;;;;;;;;;;24.30;53.40;;;;;;492594;241;1205;-70
2021/08/07 10:30:36;;;;;;;;;;;23.90;53.50;;;;;;492657;241;1081;-69
2021/08/07 10:32:38;;;;;;;;;;;24.30;52.90;;;;;;492595;241;1221;-69
2021/08/07 10:34:39;;;;;;;;;;;24.10;53.40;;;;;;492652;241;946;-70
2021/08/07 10:36:40;;;;;;;;;;;24.20;53.30;;;;;;492511;241;2160;-70
2021/08/07 10:38:42;;;;;;;;;;;24.40;53.10;;;;;;492709;241;1048;-70
2021/08/07 10:40:43;;;;;;;;;;;24.10;53.40;;;;;;492571;241;1252;-70
2021/08/07 10:42:44;;;;;;;;;;;24.30;53.20;;;;;;492563;241;1183;-70
2021/08/07 10:44:46;;;;;;;;;;;24.40;53.10;;;;;;492631;241;981;-70
2021/08/07 10:46:47;;;;;;;;;;;24.30;53.20;;;;;;492477;241;1169;-69
2021/08/07 10:48:48;;;;;;;;;;;24.40;53.00;;;;;;492620;241;1160;-70
2021/08/07 10:50:50;;;;;;;;;;;24.40;53.00;;;;;;492622;241;1222;-69
2021/08/07 10:52:51;;;;;;;;;;;24.90;51.30;;;;;;492577;241;1161;-70
2021/08/07 10:54:52;;;;;;;;;;;25.20;51.40;;;;;;492725;241;1071;-70
2021/08/07 10:56:54;;;;;;;;;;;24.50;52.00;;;;;;492566;237;2136;-70
2021/08/07 10:58:55;;;;;;;;;;;25.40;51.10;;;;;;492621;241;1190;-69
2021/08/07 11:00:56;;;;;;;;;;;24.40;52.60;;;;;;492539;241;1225;-70
2021/08/07 11:02:58;;;;;;;;;;;24.60;52.70;;;;;;492534;241;1244;-70
2021/08/07 11:04:59;;;;;;;;;;;24.20;53.30;;;;;;492529;241;1081;-70
2021/08/07 11:07:00;;;;;;;;;;;24.20;53.00;;;;;;492503;241;1218;-69
2021/08/07 11:09:02;;;;;;;;;;;24.90;52.30;;;;;;492602;241;1108;-70
2021/08/07 11:11:03;;;;;;;;;;;24.40;53.10;;;;;;492532;241;1157;-70
2021/08/07 11:13:04;;;;;;;;;;;24.80;52.30;;;;;;492591;241;1217;-69
2021/08/07 11:15:06;;;;;;;;;;;24.60;52.30;;;;;;492683;241;1020;-70
2021/08/07 11:17:07;;;;;;;;;;;24.30;53.10;;;;;;492549;241;2192;-69
2021/08/07 11:19:08;;;;;;;;;;;24.50;53.00;;;;;;492646;241;949;-70
2021/08/07 11:21:10;;;;;;;;;;;24.50;53.00;;;;;;492575;241;1162;-69
2021/08/07 11:23:11;;;;;;;;;;;24.40;53.40;;;;;;492693;241;946;-70
2021/08/07 11:25:14;;;;;;;;;;;24.30;53.20;;;;;;492701;241;1057;-70
2021/08/07 11:27:14;;;;;;;;;;;24.70;52.60;;;;;;492453;241;1370;-70
2021/08/07 11:29:15;;;;;;;;;;;24.80;52.20;;;;;;492716;241;963;-70
2021/08/07 11:31:17;;;;;;;;;;;24.70;52.40;;;;;;492524;241;1163;-69
2021/08/07 11:33:18;;;;;;;;;;;24.60;52.50;;;;;;492582;241;1051;-69
2021/08/07 11:35:19;;;;;;;;;;;24.40;53.60;;;;;;492646;241;953;-69
2021/08/07 11:37:21;;;;;;;;;;;24.30;53.30;;;;;;492524;241;2152;-70
2021/08/07 11:39:22;;;;;;;;;;;24.60;52.70;;;;;;492683;241;1001;-70
2021/08/07 11:41:23;;;;;;;;;;;24.60;53.20;;;;;;492561;241;1324;-69
2021/08/07 11:43:26;;;;;;;;;;;25.20;51.60;;;;;;492650;241;1001;-69
2021/08/07 11:45:26;;;;;;;;;;;24.50;53.00;;;;;;492589;241;1444;-70
2021/08/07 11:47:27;;;;;;;;;;;24.80;52.80;;;;;;492562;241;1287;-70
2021/08/07 11:49:29;;;;;;;;;;;24.40;53.10;;;;;;492673;241;1067;-69
2021/08/07 11:51:32;;;;;;;;;;;24.80;52.60;;;;;;492631;241;1276;-69
2021/08/07 11:53:31;;;;;;;;;;;25.00;52.60;;;;;;492546;242;1462;-70
2021/08/07 11:55:33;;;;;;;;;;;24.30;53.20;;;;;;492663;241;981;-69
2021/08/07 11:57:34;;;;;;;;;;;24.80;52.50;;;;;;492535;241;2143;-69